Time;durP1;ratioP1;P1;durP2;ratioP2;P2;SDS_P1;SDS_P2;PMS_P1;PMS_P2;Temp;Humidity;BMP_temperature;BMP_pressure;BME280_temperature;BME280_humidity;BME280_pressure;Samples;Min_cycle;Max_cycle;Signal;HPM_P1;HPM_P2
2023/05/25 00:00:10;;;;;;;4.80;3.80;;;;;;;22.34;43.13;100440.91;105055;1306;67118;-89
2023/05/25 00:02:37;;;;;;;5.90;3.70;;;;;;;22.34;43.04;100438.18;104845;1305;67708;-88
2023/05/25 00:05:02;;;;;;;6.30;3.90;;;;;;;22.34;43.09;100436.17;105009;1305;68013;-89
2023/05/25 00:10:00;;;;;;;6.20;3.50;;;;;;;22.33;43.11;100434.45;105181;1302;71705;-89
2023/05/25 00:12:26;;;;;;;4.90;3.60;;;;;;;22.32;43.09;100437.73;105094;1305;67924;-88
2023/05/25 00:14:51;;;;;;;6.10;3.70;;;;;;;22.33;43.10;100440.02;105296;1302;67105;-89
2023/05/25 00:17:17;;;;;;;4.50;3.40;;;;;;;22.32;43.18;100437.53;105113;1303;68001;-88
2023/05/25 00:19:43;;;;;;;6.80;3.90;;;;;;;22.32;43.12;100436.55;105321;1302;67770;-89
2023/05/25 00:22:09;;;;;;;4.50;3.50;;;;;;;22.32;43.07;100434.41;105003;1303;67967;-88
2023/05/25 00:24:35;;;;;;;4.30;3.60;;;;;;;22.32;43.05;100431.73;104984;1304;68597;-89
2023/05/25 00:27:02;;;;;;;4.70;3.70;;;;;;;22.31;43.02;100432.25;105171;1302;67137;-88
2023/05/25 00:29:28;;;;;;;7.00;3.70;;;;;;;22.31;43.08;100431.90;105308;1302;67754;-88
2023/05/25 00:31:53;;;;;;;4.70;3.80;;;;;;;22.32;42.95;100434.09;105225;1302;67936;-89
2023/05/25 00:34:19;;;;;;;5.40;3.80;;;;;;;22.31;43.06;100443.73;105228;1302;67635;-88
2023/05/25 00:36:48;;;;;;;6.40;3.60;;;;;;;22.31;43.06;100441.08;105034;1305;68623;-89
2023/05/25 00:39:22;;;;;;;4.00;3.50;;;;;;;22.30;43.05;100445.64;105332;1302;67804;-89
2023/05/25 00:41:48;;;;;;;6.60;4.00;;;;;;;22.30;43.10;100445.08;105184;1303;83923;-89
2023/05/25 00:44:14;;;;;;;5.20;3.70;;;;;;;22.29;43.11;100445.38;105335;1303;67721;-89
2023/05/25 00:46:47;;;;;;;7.10;3.70;;;;;;;22.29;43.04;100444.67;105194;1303;67795;-89
2023/05/25 00:49:13;;;;;;;6.50;3.60;;;;;;;22.29;43.10;100444.81;105242;1303;67837;-89
2023/05/25 00:51:39;;;;;;;7.90;3.70;;;;;;;22.29;43.10;100445.08;105262;1303;67828;-88
2023/05/25 00:54:05;;;;;;;5.20;3.70;;;;;;;22.28;43.16;100441.19;105289;1305;67916;-88
2023/05/25 00:56:31;;;;;;;5.80;4.20;;;;;;;22.28;43.14;100441.95;105264;1303;68491;-88
2023/05/25 00:58:59;;;;;;;4.60;3.70;;;;;;;22.28;43.12;100439.59;105267;1302;68086;-89
2023/05/25 01:01:32;;;;;;;4.70;3.50;;;;;;;22.27;43.19;100438.68;105393;1302;67115;-93
2023/05/25 01:03:58;;;;;;;5.40;3.80;;;;;;;22.28;43.16;100441.66;105280;1302;74486;-88
2023/05/25 01:06:25;;;;;;;5.70;3.90;;;;;;;22.27;43.16;100441.19;105185;1302;67866;-88
2023/05/25 01:08:53;;;;;;;6.30;4.00;;;;;;;22.27;43.31;100443.09;105069;1303;72786;-88
2023/05/25 01:11:19;;;;;;;5.90;4.40;;;;;;;22.27;43.28;100444.38;105199;1303;68504;-88
2023/05/25 01:13:45;;;;;;;4.40;3.80;;;;;;;22.26;43.33;100447.14;105177;1303;67804;-88
2023/05/25 01:16:10;;;;;;;4.60;3.60;;;;;;;22.26;43.42;100446.42;105034;1302;67197;-88
2023/05/25 01:18:36;;;;;;;7.30;4.40;;;;;;;22.26;43.34;100443.40;105040;1302;68548;-89
2023/05/25 01:21:19;;;;;;;5.90;4.00;;;;;;;22.26;43.33;100451.30;105222;1303;67198;-88
2023/05/25 01:24:25;;;;;;;5.80;3.60;;;;;;;22.25;43.47;100453.51;105257;1303;67797;-89
2023/05/25 01:27:10;;;;;;;5.60;3.70;;;;;;;22.24;43.41;100449.01;105228;1305;67908;-88
2023/05/25 01:29:36;;;;;;;6.10;3.80;;;;;;;22.24;43.53;100451.05;105048;1303;74602;-89
2023/05/25 01:32:02;;;;;;;5.10;4.20;;;;;;;22.23;43.55;100450.19;105199;1303;67986;-88
2023/05/25 01:34:27;;;;;;;4.60;3.90;;;;;;;22.23;43.55;100446.50;105069;1303;67849;-89
2023/05/25 01:36:53;;;;;;;4.80;3.60;;;;;;;22.24;43.60;100441.31;105068;1303;67614;-88
2023/05/25 01:39:22;;;;;;;6.80;3.80;;;;;;;22.23;43.60;100438.34;105138;1303;79813;-88
2023/05/25 01:41:48;;;;;;;5.90;3.70;;;;;;;22.23;43.63;100444.91;105213;1303;68091;-89
2023/05/25 01:44:14;;;;;;;6.20;4.00;;;;;;;22.23;43.69;100444.80;105102;1305;67831;-89
2023/05/25 01:46:40;;;;;;;5.10;3.90;;;;;;;22.22;43.67;100441.89;105257;1303;67886;-88
2023/05/25 01:49:25;;;;;;;4.70;3.80;;;;;;;22.22;43.70;100441.33;105131;1303;67895;-89
2023/05/25 01:52:22;;;;;;;4.90;3.90;;;;;;;22.21;43.58;100437.59;105229;1303;67156;-89
2023/05/25 01:54:58;;;;;;;5.10;3.80;;;;;;;22.21;43.82;100434.83;105169;1302;75848;-88
2023/05/25 01:57:24;;;;;;;5.90;3.90;;;;;;;22.21;43.74;100442.00;105255;1302;82933;-88
2023/05/25 01:59:50;;;;;;;5.70;4.10;;;;;;;22.20;43.75;100443.34;105197;1303;67807;-89
2023/05/25 02:02:17;;;;;;;7.50;3.70;;;;;;;22.20;43.75;100444.83;104966;1303;69165;-89
2023/05/25 02:04:42;;;;;;;6.00;3.80;;;;;;;22.21;43.95;100443.95;105198;1303;68129;-88
2023/05/25 02:07:15;;;;;;;5.80;3.80;;;;;;;22.20;43.92;100446.83;105281;1303;67876;-92
2023/05/25 02:09:40;;;;;;;5.60;3.60;;;;;;;22.20;43.84;100452.30;104995;1303;81129;-88
2023/05/25 02:12:06;;;;;;;7.70;4.10;;;;;;;22.19;43.92;100452.52;105103;1303;67903;-88
2023/05/25 02:14:32;;;;;;;7.30;4.30;;;;;;;22.19;43.87;100454.35;105004;1303;67934;-89
2023/05/25 02:17:00;;;;;;;5.80;4.00;;;;;;;22.19;43.94;100453.74;105015;1303;68872;-88
2023/05/25 02:19:28;;;;;;;5.90;4.10;;;;;;;22.19;44.01;100453.19;105055;1303;67719;-89
2023/05/25 02:21:54;;;;;;;6.60;4.00;;;;;;;22.18;43.97;100455.54;105193;1303;82203;-89
2023/05/25 02:24:22;;;;;;;5.20;3.60;;;;;;;22.18;43.93;100456.05;105184;1303;67782;-88
2023/05/25 02:26:47;;;;;;;5.50;3.40;;;;;;;22.18;44.03;100458.57;105171;1304;67745;-88
2023/05/25 02:29:13;;;;;;;6.90;4.30;;;;;;;22.18;43.99;100459.95;105034;1303;67911;-89
2023/05/25 02:31:39;;;;;;;7.80;4.00;;;;;;;22.18;44.09;100462.77;105223;1303;68581;-89
2023/05/25 02:34:04;;;;;;;7.40;3.90;;;;;;;22.18;44.03;100466.56;105228;1303;67935;-88
2023/05/25 02:36:30;;;;;;;9.00;4.10;;;;;;;22.17;44.10;100465.13;105145;1303;67922;-89
2023/05/25 02:38:56;;;;;;;4.60;3.60;;;;;;;22.17;44.00;100465.23;105212;1303;68377;-88
2023/05/25 02:41:23;;;;;;;7.20;4.00;;;;;;;22.17;44.06;100464.52;105252;1303;68715;-88
2023/05/25 02:43:50;;;;;;;5.60;3.80;;;;;;;22.17;44.12;100468.41;105220;1303;67863;-88
2023/05/25 02:46:16;;;;;;;6.90;4.00;;;;;;;22.16;44.15;100471.33;105060;1303;71369;-88
2023/05/25 02:48:42;;;;;;;8.00;4.10;;;;;;;22.16;44.15;100471.08;105034;1305;67844;-87
2023/05/25 02:51:07;;;;;;;7.00;4.10;;;;;;;22.16;44.22;100473.44;105235;1302;67718;-88
2023/05/25 02:53:33;;;;;;;7.90;4.10;;;;;;;22.15;44.18;100476.72;105068;1303;68102;-89
2023/05/25 02:56:00;;;;;;;7.90;4.30;;;;;;;22.16;44.28;100474.77;105250;1303;67901;-88
2023/05/25 02:58:27;;;;;;;7.70;3.90;;;;;;;22.16;44.21;100480.00;105087;1303;67843;-89
2023/05/25 03:01:02;;;;;;;9.20;4.30;;;;;;;22.16;44.23;100475.18;105194;1303;68023;-92
2023/05/25 03:03:28;;;;;;;7.60;3.80;;;;;;;22.15;44.33;100477.80;105199;1302;74468;-88
2023/05/25 03:05:55;;;;;;;6.70;3.90;;;;;;;22.15;44.28;100482.98;105302;1304;67830;-88
2023/05/25 03:08:22;;;;;;;5.60;4.00;;;;;;;22.15;44.31;100481.35;104806;1303;72616;-88
2023/05/25 03:10:47;;;;;;;6.30;4.10;;;;;;;22.15;44.30;100483.19;105213;1303;68630;-88
2023/05/25 03:13:13;;;;;;;6.00;4.30;;;;;;;22.15;44.38;100485.64;105236;1303;67867;-88
2023/05/25 03:15:39;;;;;;;7.00;3.90;;;;;;;22.14;44.23;100486.98;105072;1303;67887;-88
2023/05/25 03:18:05;;;;;;;9.80;5.30;;;;;;;22.14;44.20;100485.45;105115;1303;68597;-88
2023/05/25 03:20:31;;;;;;;12.00;5.10;;;;;;;22.14;44.19;100482.33;105332;1303;67817;-88
2023/05/25 03:22:57;;;;;;;7.10;4.00;;;;;;;22.15;44.25;100484.93;105323;1303;67761;-88
2023/05/25 03:25:22;;;;;;;9.50;4.10;;;;;;;22.14;44.21;100490.11;105109;1302;69149;-88
2023/05/25 03:28:00;;;;;;;10.00;4.20;;;;;;;22.13;44.23;100491.66;105247;1302;67838;-92
2023/05/25 03:30:25;;;;;;;4.90;4.00;;;;;;;22.12;44.26;100488.84;105223;1303;73422;-88
2023/05/25 03:32:51;;;;;;;10.50;4.50;;;;;;;22.11;44.29;100489.81;105530;1303;67126;-87
2023/05/25 03:35:17;;;;;;;10.50;4.50;;;;;;;22.10;44.36;100493.92;105738;1302;67098;-87
2023/05/25 03:37:42;;;;;;;8.50;4.90;;;;;;;22.08;44.42;100492.90;105815;1302;66975;-86
2023/05/25 03:40:08;;;;;;;6.90;4.60;;;;;;;22.07;44.54;100496.39;105548;1303;66995;-87
2023/05/25 03:42:34;;;;;;;12.80;4.90;;;;;;;22.05;44.65;100497.62;105475;1303;67946;-87
2023/05/25 03:44:59;;;;;;;10.10;4.60;;;;;;;22.03;44.61;100496.91;105722;1303;67052;-86
2023/05/25 03:47:25;;;;;;;9.50;4.70;;;;;;;22.01;44.71;100506.55;105803;1304;67264;-86
2023/05/25 03:49:50;;;;;;;7.40;5.20;;;;;;;21.99;44.78;100513.68;105274;1305;67907;-86
2023/05/25 03:52:16;;;;;;;15.90;7.20;;;;;;;21.97;44.77;100513.38;105774;1303;67232;-86
2023/05/25 03:57:11;;;;;;;16.60;8.80;;;;;;;21.92;44.83;100519.04;105567;1301;73620;-87
2023/05/25 03:59:37;;;;;;;14.10;9.10;;;;;;;21.90;44.95;100513.45;105151;1303;67882;-87
2023/05/25 04:02:03;;;;;;;13.90;8.50;;;;;;;21.89;44.95;100515.35;105335;1305;67878;-87
2023/05/25 04:04:28;;;;;;;15.30;8.10;;;;;;;21.89;45.03;100518.84;105201;1305;67970;-87
2023/05/25 04:06:54;;;;;;;16.10;7.80;;;;;;;21.89;44.94;100522.94;105436;1302;67731;-88
2023/05/25 04:09:20;;;;;;;11.30;6.80;;;;;;;21.90;45.00;100525.23;105003;1305;84415;-86
2023/05/25 04:11:46;;;;;;;11.10;7.60;;;;;;;21.90;45.01;100528.58;105045;1305;67862;-86
2023/05/25 04:14:11;;;;;;;9.70;6.60;;;;;;;21.90;44.91;100532.16;105281;1305;69087;-86
2023/05/25 04:16:39;;;;;;;11.40;6.00;;;;;;;21.91;45.02;100535.23;105026;1308;67927;-86
2023/05/25 04:19:05;;;;;;;9.70;6.10;;;;;;;21.91;44.84;100535.11;105232;1305;67910;-86
2023/05/25 04:21:31;;;;;;;9.20;5.70;;;;;;;21.92;44.85;100539.88;105185;1305;67776;-86
2023/05/25 04:23:57;;;;;;;6.70;5.40;;;;;;;21.93;44.95;100536.74;105031;1304;67871;-86
2023/05/25 04:26:25;;;;;;;7.40;5.60;;;;;;;21.95;45.05;100540.74;105032;1304;67902;-86
2023/05/25 04:28:53;;;;;;;10.40;5.40;;;;;;;21.96;45.07;100542.23;105224;1304;75425;-86
2023/05/25 04:31:19;;;;;;;9.00;5.30;;;;;;;21.98;45.05;100542.02;105111;1306;83891;-86
2023/05/25 04:33:45;;;;;;;8.40;5.20;;;;;;;21.99;45.13;100543.86;105196;1305;67743;-87
2023/05/25 04:36:10;;;;;;;8.00;4.70;;;;;;;22.01;45.08;100544.63;105183;1304;67123;-86
2023/05/25 04:38:36;;;;;;;5.00;4.50;;;;;;;22.02;45.06;100547.75;105232;1305;67912;-87
2023/05/25 04:41:02;;;;;;;7.80;4.90;;;;;;;22.03;45.08;100552.50;105156;1304;67262;-87
2023/05/25 04:43:28;;;;;;;8.90;4.80;;;;;;;22.04;45.11;100552.91;105155;1305;67969;-87
2023/05/25 04:45:55;;;;;;;9.10;5.20;;;;;;;22.05;45.07;100560.95;104897;1305;69202;-87
2023/05/25 04:48:21;;;;;;;9.40;4.70;;;;;;;22.07;45.11;100560.84;105134;1305;67797;-87
2023/05/25 04:50:47;;;;;;;10.00;4.70;;;;;;;22.08;45.15;100563.66;105052;1306;67058;-87
2023/05/25 04:53:12;;;;;;;8.80;4.90;;;;;;;22.10;45.09;100562.32;104957;1306;67448;-86
2023/05/25 04:55:38;;;;;;;10.70;5.40;;;;;;;22.11;45.19;100564.46;105046;1305;67892;-87
2023/05/25 04:58:04;;;;;;;8.10;4.70;;;;;;;22.13;45.16;100568.02;105080;1305;67857;-86
2023/05/25 05:00:39;;;;;;;8.50;5.00;;;;;;;22.13;45.21;100570.73;105089;1305;67926;-92
2023/05/25 05:03:04;;;;;;;10.40;5.30;;;;;;;22.15;45.26;100570.77;105076;1304;83278;-87
2023/05/25 05:05:29;;;;;;;11.30;4.80;;;;;;;22.16;45.23;100570.34;105140;1304;67852;-87
2023/05/25 05:07:56;;;;;;;7.40;4.70;;;;;;;22.17;45.24;100575.52;104999;1305;67864;-87
2023/05/25 05:10:22;;;;;;;12.40;4.80;;;;;;;22.18;45.18;100574.69;105001;1305;68920;-86
2023/05/25 05:12:48;;;;;;;6.30;4.40;;;;;;;22.19;45.22;100575.91;105055;1305;68881;-87
2023/05/25 05:15:13;;;;;;;11.70;4.60;;;;;;;22.19;45.18;100583.20;104989;1304;67168;-86
2023/05/25 05:17:41;;;;;;;7.80;4.40;;;;;;;22.20;45.13;100584.17;105180;1305;67870;-91
2023/05/25 05:20:09;;;;;;;6.20;4.40;;;;;;;22.21;45.14;100585.55;105302;1301;69115;-90
2023/05/25 05:22:36;;;;;;;12.00;4.60;;;;;;;22.21;45.11;100586.48;105240;1304;67704;-88
2023/05/25 05:25:03;;;;;;;12.20;4.50;;;;;;;22.20;45.00;100589.24;105243;1298;83757;-90
2023/05/25 05:27:33;;;;;;;11.10;4.50;;;;;;;22.20;44.98;100590.36;105315;1303;67814;-92
2023/05/25 05:29:58;;;;;;;8.40;4.80;;;;;;;22.20;44.94;100595.55;105181;1302;67826;-87
2023/05/25 05:32:24;;;;;;;9.70;5.00;;;;;;;22.19;44.93;100596.16;105246;1302;67631;-89
2023/05/25 05:34:55;;;;;;;9.90;4.70;;;;;;;22.18;44.84;100598.73;105158;1305;68720;-89
2023/05/25 05:37:21;;;;;;;12.40;5.10;;;;;;;22.17;44.79;100602.68;104847;1305;83099;-89
2023/05/25 05:39:46;;;;;;;9.30;4.50;;;;;;;22.16;44.91;100598.02;105005;1305;67484;-88
2023/05/25 05:42:12;;;;;;;9.80;4.60;;;;;;;22.17;44.85;100602.01;105018;1305;68107;-88
2023/05/25 05:44:38;;;;;;;8.20;4.80;;;;;;;22.17;44.95;100602.22;105074;1305;67912;-87
2023/05/25 05:47:03;;;;;;;11.30;5.00;;;;;;;22.17;44.84;100603.91;105077;1303;67531;-87
2023/05/25 05:49:29;;;;;;;11.70;4.40;;;;;;;22.17;44.84;100601.80;104779;1305;73495;-87
2023/05/25 05:51:55;;;;;;;9.50;4.80;;;;;;;22.17;44.74;100604.92;104777;1304;67896;-87
2023/05/25 05:54:29;;;;;;;9.40;4.90;;;;;;;22.17;44.72;100602.23;105031;1305;67241;-92
2023/05/25 05:56:55;;;;;;;13.00;4.70;;;;;;;22.18;44.67;100609.04;105035;1303;74493;-89
2023/05/25 05:59:21;;;;;;;12.30;5.10;;;;;;;22.18;44.68;100605.95;105087;1304;68157;-87
2023/05/25 06:01:46;;;;;;;10.60;4.90;;;;;;;22.18;44.61;100605.85;105324;1304;67075;-89
2023/05/25 06:04:12;;;;;;;11.30;5.00;;;;;;;22.19;44.57;100607.90;105329;1304;67284;-88
2023/05/25 06:06:39;;;;;;;9.10;4.90;;;;;;;22.20;44.48;100606.92;105443;1304;67887;-88
2023/05/25 06:09:05;;;;;;;9.00;5.50;;;;;;;22.20;44.43;100608.46;105163;1305;83600;-88
2023/05/25 06:11:36;;;;;;;13.10;5.30;;;;;;;22.20;44.56;100607.44;105108;1304;67190;-89
2023/05/25 06:14:03;;;;;;;13.80;5.40;;;;;;;22.21;44.44;100610.86;105190;1304;68378;-90
2023/05/25 06:16:32;;;;;;;13.00;5.90;;;;;;;22.21;44.64;100612.15;104958;1304;67151;-89
2023/05/25 06:18:58;;;;;;;9.00;5.40;;;;;;;22.22;44.42;100611.43;105378;1304;74422;-88
2023/05/25 06:21:24;;;;;;;11.90;5.30;;;;;;;22.22;44.46;100611.90;105333;1296;67159;-89
2023/05/25 06:23:51;;;;;;;11.70;5.40;;;;;;;22.23;44.32;100609.84;105098;1304;67793;-90
2023/05/25 06:26:16;;;;;;;8.10;5.20;;;;;;;22.23;44.40;100607.89;105111;1303;67329;-89
2023/05/25 06:28:50;;;;;;;11.90;5.20;;;;;;;22.25;44.31;100607.90;105450;1301;67762;-89
2023/05/25 06:31:15;;;;;;;6.70;4.60;;;;;;;22.27;44.56;100611.27;105231;1302;74708;-89
2023/05/25 06:33:41;;;;;;;6.90;4.90;;;;;;;22.29;44.85;100607.48;104800;1304;68309;-89
2023/05/25 06:38:51;;;;;;;9.60;5.00;;;;;;;22.35;45.12;100618.05;105211;1305;67677;-88
2023/05/25 06:41:18;;;;;;;7.20;4.80;;;;;;;22.37;45.18;100619.44;105304;1305;67147;-86
2023/05/25 06:43:44;;;;;;;7.30;5.10;;;;;;;22.39;45.30;100627.07;105334;1305;67408;-87
2023/05/25 06:46:10;;;;;;;11.20;5.60;;;;;;;22.40;45.22;100625.11;105073;1304;68027;-86
2023/05/25 06:48:36;;;;;;;13.10;7.00;;;;;;;22.40;45.23;100630.90;105175;1305;67726;-86
2023/05/25 06:51:03;;;;;;;11.50;6.90;;;;;;;22.40;45.02;100631.31;105149;1304;67849;-89
2023/05/25 06:53:28;;;;;;;10.00;6.90;;;;;;;22.40;44.96;100633.25;105081;1308;67752;-88
2023/05/25 06:58:32;;;;;;;7.40;6.50;;;;;;;22.39;44.57;100632.09;105111;1307;83219;-89
2023/05/25 07:00:59;;;;;;;9.30;7.00;;;;;;;22.38;44.67;100635.94;105096;1307;72668;-88
2023/05/25 07:03:25;;;;;;;13.80;6.90;;;;;;;22.38;44.62;100637.89;105079;1305;68643;-89
2023/05/25 07:05:51;;;;;;;13.80;7.20;;;;;;;22.38;44.36;100635.59;104804;1305;67121;-89
2023/05/25 07:08:16;;;;;;;10.10;6.80;;;;;;;22.37;44.22;100635.79;104942;1307;67959;-88
2023/05/25 07:10:42;;;;;;;10.80;7.50;;;;;;;22.37;44.17;100634.26;105049;1305;67773;-87
2023/05/25 07:13:09;;;;;;;12.20;7.50;;;;;;;22.37;44.39;100632.61;105052;1306;67778;-88
2023/05/25 07:15:36;;;;;;;11.80;7.20;;;;;;;22.40;44.31;100638.02;104957;1305;68476;-87
2023/05/25 07:18:04;;;;;;;17.40;6.50;;;;;;;22.41;44.27;100634.23;104962;1308;67914;-88
2023/05/25 07:20:30;;;;;;;11.20;6.60;;;;;;;22.42;44.30;100631.77;104810;1307;83423;-86
2023/05/25 07:22:55;;;;;;;10.80;6.80;;;;;;;22.44;44.39;100630.56;104937;1307;67771;-87
2023/05/25 07:25:21;;;;;;;10.80;6.80;;;;;;;22.46;44.42;100634.50;104830;1305;67843;-87
2023/05/25 07:27:47;;;;;;;11.00;6.90;;;;;;;22.47;44.39;100635.93;104772;1305;67231;-85
2023/05/25 07:30:13;;;;;;;12.30;6.90;;;;;;;22.48;44.42;100635.83;104830;1307;67659;-87
2023/05/25 07:32:40;;;;;;;9.80;6.90;;;;;;;22.47;44.37;100634.09;104744;1310;67212;-87
2023/05/25 07:35:06;;;;;;;11.20;7.00;;;;;;;22.49;44.16;100635.02;104969;1306;68500;-87
2023/05/25 07:37:31;;;;;;;11.20;6.50;;;;;;;22.49;44.10;100636.55;104875;1307;68984;-85
2023/05/25 07:39:57;;;;;;;12.10;6.70;;;;;;;22.49;44.05;100639.38;104688;1307;67923;-87
2023/05/25 07:42:22;;;;;;;9.00;6.40;;;;;;;22.49;43.97;100641.77;104626;1305;67852;-87
2023/05/25 07:47:21;;;;;;;13.20;7.00;;;;;;;22.49;43.68;100642.90;105241;1302;67897;-85
2023/05/25 07:49:47;;;;;;;12.00;6.80;;;;;;;22.49;43.70;100645.22;105294;1302;67397;-86
2023/05/25 07:52:13;;;;;;;12.10;7.00;;;;;;;22.50;43.67;100645.66;105225;1302;68358;-87
2023/05/25 07:54:38;;;;;;;12.00;7.00;;;;;;;22.49;43.66;100649.11;105515;1302;67803;-88
2023/05/25 07:57:05;;;;;;;12.10;7.00;;;;;;;22.49;43.63;100649.67;105447;1303;67095;-88
2023/05/25 07:59:34;;;;;;;11.20;6.40;;;;;;;22.48;43.57;100647.31;105533;1303;74355;-86
2023/05/25 08:01:59;;;;;;;12.30;6.40;;;;;;;22.50;43.59;100647.77;105334;1303;82081;-86
2023/05/25 08:04:25;;;;;;;12.30;6.30;;;;;;;22.50;43.62;100649.00;105278;1302;67796;-86
2023/05/25 08:06:50;;;;;;;13.60;6.20;;;;;;;22.52;43.62;100650.83;105347;1302;67748;-87
2023/05/25 08:09:16;;;;;;;12.60;6.60;;;;;;;22.52;43.77;100648.77;105116;1303;68452;-88
2023/05/25 08:11:43;;;;;;;13.10;7.00;;;;;;;22.52;43.65;100646.42;105137;1302;68163;-90
2023/05/25 08:20:39;;;;;;;;;;;;;;;;;;;;;
2023/05/25 08:23:24;;;;;;;;;;;;;;;;;;;;;
2023/05/25 08:26:07;;;;;;;14.30;6.20;;;;;;;22.57;43.91;100646.67;105219;1299;83059;-91
2023/05/25 08:35:39;;;;;;;;;;;;;;;;;;;;;
2023/05/25 08:41:26;;;;;;;9.90;6.40;;;;;;;22.70;44.37;100631.02;105335;1302;74293;-90
2023/05/25 08:47:21;;;;;;;;;;;;;;;;;;;;;
2023/05/25 09:05:07;;;;;;;10.30;7.00;;;;;;;22.73;44.15;100630.85;105289;1304;67870;-91
2023/05/25 09:07:57;;;;;;;10.80;7.60;;;;;;;22.74;44.14;100626.33;105389;1305;74688;-92
2023/05/25 09:10:50;;;;;;;9.80;7.30;;;;;;;22.74;43.95;100627.46;105335;1302;74631;-90
2023/05/25 09:13:22;;;;;;;13.70;8.10;;;;;;;22.75;43.98;100626.06;105309;1299;67487;-91
2023/05/25 09:16:11;;;;;;;11.10;7.10;;;;;;;22.76;43.82;100628.84;105443;1301;68412;-90
2023/05/25 09:21:35;;;;;;;12.30;7.30;;;;;;;22.75;43.77;100627.40;105416;1301;73028;-89
2023/05/25 09:24:31;;;;;;;10.10;7.00;;;;;;;22.75;43.63;100621.45;105408;1295;83068;-90
2023/05/25 09:30:05;;;;;;;11.90;6.90;;;;;;;22.75;43.48;100623.55;105441;1296;68020;-90
2023/05/25 09:36:11;;;;;;;9.90;6.60;;;;;;;22.76;43.38;100621.55;105414;1305;72451;31
2023/05/25 09:39:07;;;;;;;12.00;6.60;;;;;;;22.74;43.36;100612.33;105471;1301;73282;-89
2023/05/25 09:45:04;;;;;;;12.10;6.60;;;;;;;22.75;43.21;100605.35;105560;1296;67149;-88
2023/05/25 09:48:09;;;;;;;12.40;6.80;;;;;;;22.75;43.08;100600.58;105529;1296;68324;31
2023/05/25 09:50:51;;;;;;;10.70;7.60;;;;;;;22.74;42.99;100587.91;105307;1298;74276;-88
2023/05/25 10:01:52;;;;;;;11.70;10.00;;;;;;;22.78;42.80;100581.93;105480;1302;67125;-91
2023/05/25 10:10:08;;;;;;;14.20;9.80;;;;;;;22.77;42.69;100576.75;105483;1301;67755;-89
2023/05/25 10:19:09;;;;;;;12.70;9.60;;;;;;;22.78;42.67;100566.80;105482;1302;74475;-90
2023/05/25 10:36:51;;;;;;;12.00;9.30;;;;;;;22.79;42.24;100547.05;99969;1301;73131;-91
2023/05/25 10:39:59;;;;;;;14.70;8.70;;;;;;;22.78;42.12;100546.55;105462;1301;72584;-91
2023/05/25 10:45:36;;;;;;;12.70;8.20;;;;;;;22.78;42.13;100536.59;105225;1301;67887;-90
2023/05/25 10:52:06;;;;;;;;;;;;;;;;;;;;;
2023/05/25 11:01:17;;;;;;;8.60;5.80;;;;;;;22.82;41.90;100509.54;104447;1304;67738;-90
2023/05/25 11:07:12;;;;;;;7.70;4.80;;;;;;;22.93;41.61;100505.39;105662;1301;72959;-91
2023/05/25 11:16:13;;;;;;;13.40;6.40;;;;;;;23.08;41.17;100500.21;87319;1299;66822;-91
2023/05/25 11:19:15;;;;;;;9.60;6.30;;;;;;;23.11;40.99;100496.54;100120;1305;67276;-91
2023/05/25 11:22:27;;;;;;;11.50;5.50;;;;;;;23.13;40.88;100497.68;105587;1299;73365;-90
2023/05/25 11:28:13;;;;;;;7.40;4.80;;;;;;;23.18;40.44;100499.23;105423;1302;67699;-90
2023/05/25 11:30:43;;;;;;;7.10;4.50;;;;;;;23.20;40.18;100493.48;105390;1301;68539;-90
2023/05/25 11:33:15;;;;;;;6.70;4.40;;;;;;;23.20;39.99;100496.52;105328;1302;67709;-90
2023/05/25 11:35:50;;;;;;;9.90;4.80;;;;;;;23.20;39.85;100500.92;105338;1304;84164;-90
2023/05/25 11:38:23;;;;;;;6.70;4.90;;;;;;;23.21;39.71;100507.19;105589;1296;72697;31
2023/05/25 11:40:50;;;;;;;8.00;5.20;;;;;;;23.21;39.77;100516.95;105425;1304;67154;-89
2023/05/25 11:49:13;;;;;;;8.80;5.30;;;;;;;23.17;39.80;100532.66;105502;1301;83023;-88
2023/05/25 11:54:58;;;;;;;9.80;5.50;;;;;;;23.15;40.24;100534.52;103326;1302;559131;-89
2023/05/25 12:12:57;;;;;;;9.40;6.20;;;;;;;23.49;40.87;100524.48;106251;1283;603605;-90
2023/05/25 12:15:46;;;;;;;10.10;6.80;;;;;;;23.53;41.11;100518.50;101909;1288;5403132;-90
2023/05/25 12:18:24;;;;;;;10.30;6.10;;;;;;;23.45;41.04;100514.63;106327;1285;69702;-90
2023/05/25 12:21:08;;;;;;;7.90;6.40;;;;;;;23.38;41.14;100512.55;105826;1286;75553;-91
2023/05/25 12:26:44;;;;;;;10.70;5.70;;;;;;;23.24;41.34;100513.64;105757;1286;68345;-90
2023/05/25 12:29:20;;;;;;;9.80;5.80;;;;;;;23.18;41.34;100512.64;105843;1282;70039;-88
2023/05/25 12:34:46;;;;;;;;;;;;;;;;;;;;;
2023/05/25 12:37:30;;;;;;;8.90;5.10;;;;;;;23.07;41.47;100521.92;104081;1289;68617;-90
2023/05/25 12:39:56;;;;;;;10.00;5.50;;;;;;;23.04;41.40;100529.90;105436;1288;68604;-89
2023/05/25 12:42:25;;;;;;;9.20;5.50;;;;;;;23.02;41.49;100531.29;105455;1288;69913;-90
2023/05/25 12:44:59;;;;;;;7.00;4.70;;;;;;;22.99;41.42;100536.55;105648;1288;67562;-90
2023/05/25 12:47:31;;;;;;;7.80;5.50;;;;;;;22.96;41.41;100538.48;105814;1287;74175;-89
2023/05/25 12:50:11;;;;;;;9.80;5.40;;;;;;;22.94;41.51;100543.05;104583;1282;69884;31
2023/05/25 12:52:38;;;;;;;8.40;5.10;;;;;;;22.92;41.57;100539.22;104234;1291;70072;-89
2023/05/25 12:55:26;;;;;;;9.20;5.20;;;;;;;22.90;41.58;100536.61;104480;1288;70062;-89
2023/05/25 12:58:00;;;;;;;7.90;5.30;;;;;;;22.88;41.65;100532.27;105335;1287;72978;-90
2023/05/25 13:00:33;;;;;;;8.30;5.10;;;;;;;22.86;41.75;100535.27;105002;1291;75368;-89
2023/05/25 13:02:59;;;;;;;8.50;5.90;;;;;;;22.83;41.86;100540.52;105215;1287;67551;-89
2023/05/25 13:05:26;;;;;;;10.40;6.50;;;;;;;22.82;41.87;100543.19;104827;1288;69979;-90
2023/05/25 13:08:12;;;;;;;8.30;5.90;;;;;;;22.81;42.00;100541.60;104501;1288;70088;31
2023/05/25 13:25:59;;;;;;;7.20;5.30;;;;;;;22.72;42.23;100515.55;87929;1282;67607;-89
2023/05/25 13:28:33;;;;;;;9.50;5.80;;;;;;;22.71;42.33;100511.05;105336;1291;85697;-89
2023/05/25 13:31:16;;;;;;;8.70;5.00;;;;;;;22.72;42.35;100506.13;105249;1291;73243;-89
2023/05/25 13:33:48;;;;;;;6.40;5.00;;;;;;;22.71;42.32;100500.79;104651;1290;70075;-89
2023/05/25 13:36:18;;;;;;;9.40;5.00;;;;;;;22.71;42.35;100499.82;104548;1289;70018;-90
2023/05/25 13:39:00;;;;;;;;;;;;;;;;;;;;;
2023/05/25 13:41:27;;;;;;;8.00;5.10;;;;;;;22.70;42.33;100490.11;104769;1289;83891;-89
2023/05/25 13:43:56;;;;;;;7.50;5.20;;;;;;;22.70;42.35;100487.41;104353;1288;70820;-89
2023/05/25 13:46:43;;;;;;;;;;;;;;;;;;;;;
2023/05/25 13:48:58;;;;;;;9.70;4.80;;;;;;;22.68;42.36;100482.07;104661;1291;70036;-89
2023/05/25 13:51:27;;;;;;;9.80;5.10;;;;;;;22.68;42.38;100479.01;104704;1291;72606;-90
2023/05/25 13:56:26;;;;;;;12.20;5.20;;;;;;;22.67;42.25;100478.75;105046;1291;73107;-89
2023/05/25 13:58:57;;;;;;;5.30;4.60;;;;;;;22.66;42.28;100471.52;104543;1282;70078;-89
2023/05/25 14:01:27;;;;;;;5.30;4.80;;;;;;;22.66;42.35;100469.63;104432;1290;70906;-89
2023/05/25 14:07:00;;;;;;;6.90;3.60;;;;;;;22.66;42.18;100463.16;104290;1291;81995;-89
2023/05/25 14:09:27;;;;;;;5.70;3.40;;;;;;;22.66;42.23;100457.01;104612;1285;68518;-89
2023/05/25 14:11:54;;;;;;;5.20;3.60;;;;;;;22.68;42.22;100449.26;104350;1290;70042;-88
2023/05/25 14:14:20;;;;;;;6.20;3.90;;;;;;;22.69;42.19;100447.81;104509;1287;70070;-88
2023/05/25 14:16:49;;;;;;;6.20;4.40;;;;;;;22.70;42.21;100449.65;104406;1281;70051;-88
2023/05/25 14:19:16;;;;;;;5.40;3.80;;;;;;;22.71;42.21;100447.65;104185;1293;85906;-90
2023/05/25 14:21:41;;;;;;;7.70;3.90;;;;;;;22.74;42.23;100450.66;104636;1289;69836;-89
2023/05/25 14:24:07;;;;;;;5.50;3.80;;;;;;;22.75;42.13;100451.10;104480;1294;68018;-89
2023/05/25 14:26:33;;;;;;;9.40;4.20;;;;;;;22.76;42.07;100453.45;104038;1296;70003;-89
2023/05/25 14:28:59;;;;;;;5.50;3.90;;;;;;;22.77;42.05;100448.98;104324;1294;69972;-89